sensor_id;sensor_type;location;lat;lon;timestamp;pressure;altitude;pressure_sealevel;temperature;humidity
9289;BME280;4683;50.864;12.086;2023-02-10T00:01:46;100901.09;;;-1.48;100.00
9289;BME280;4683;50.864;12.086;2023-02-10T00:04:17;100900.03;;;-1.43;100.00
9289;BME280;4683;50.864;12.086;2023-02-10T00:06:46;100911.09;;;-1.39;100.00
9289;BME280;4683;50.864;12.086;2023-02-10T00:09:14;100903.28;;;-1.38;100.00
9289;BME280;4683;50.864;12.086;2023-02-10T00:11:43;100907.69;;;-1.40;100.00
9289;BME280;4683;50.864;12.086;2023-02-10T00:14:30;100908.81;;;-1.47;100.00
9289;BME280;4683;50.864;12.086;2023-02-10T00:17:00;100902.06;;;-1.51;100.00
9289;BME280;4683;50.864;12.086;2023-02-10T00:19:29;100907.38;;;-1.54;100.00
9289;BME280;4683;50.864;12.086;2023-02-10T00:22:01;100907.56;;;-1.60;100.00
9289;BME280;4683;50.864;12.086;2023-02-10T00:24:30;100918.25;;;-1.69;100.00
9289;BME280;4683;50.864;12.086;2023-02-10T00:26:59;100929.63;;;-1.73;100.00
9289;BME280;4683;50.864;12.086;2023-02-10T00:29:29;100927.16;;;-1.76;100.00
9289;BME280;4683;50.864;12.086;2023-02-10T00:31:58;100927.38;;;-1.83;100.00
9289;BME280;4683;50.864;12.086;2023-02-10T00:34:27;100926.69;;;-1.88;100.00
9289;BME280;4683;50.864;12.086;2023-02-10T00:36:55;100924.94;;;-1.87;100.00
9289;BME280;4683;50.864;12.086;2023-02-10T00:39:23;100931.94;;;-1.89;100.00
9289;BME280;4683;50.864;12.086;2023-02-10T00:41:52;100931.09;;;-1.90;100.00
9289;BME280;4683;50.864;12.086;2023-02-10T00:44:21;100927.84;;;-1.95;100.00
9289;BME280;4683;50.864;12.086;2023-02-10T00:46:51;100926.34;;;-2.02;100.00
9289;BME280;4683;50.864;12.086;2023-02-10T00:49:19;100932.63;;;-2.09;100.00
9289;BME280;4683;50.864;12.086;2023-02-10T00:51:48;100939.75;;;-2.16;100.00
9289;BME280;4683;50.864;12.086;2023-02-10T00:54:17;100942.41;;;-2.17;100.00
9289;BME280;4683;50.864;12.086;2023-02-10T00:56:46;100952.69;;;-2.16;100.00
9289;BME280;4683;50.864;12.086;2023-02-10T00:59:16;100949.25;;;-2.16;100.00
9289;BME280;4683;50.864;12.086;2023-02-10T01:02:06;100946.00;;;-2.21;100.00
9289;BME280;4683;50.864;12.086;2023-02-10T01:04:35;100951.34;;;-2.27;100.00
9289;BME280;4683;50.864;12.086;2023-02-10T01:07:04;100948.09;;;-2.33;100.00
9289;BME280;4683;50.864;12.086;2023-02-10T01:09:41;100940.47;;;-2.37;100.00
9289;BME280;4683;50.864;12.086;2023-02-10T01:12:10;100944.88;;;-2.39;100.00
9289;BME280;4683;50.864;12.086;2023-02-10T01:14:38;100946.72;;;-2.43;100.00
9289;BME280;4683;50.864;12.086;2023-02-10T01:17:08;100946.03;;;-2.48;100.00
9289;BME280;4683;50.864;12.086;2023-02-10T01:19:37;100949.59;;;-2.52;100.00
9289;BME280;4683;50.864;12.086;2023-02-10T01:22:06;100955.84;;;-2.59;100.00
9289;BME280;4683;50.864;12.086;2023-02-10T01:24:34;100953.38;;;-2.62;100.00
9289;BME280;4683;50.864;12.086;2023-02-10T01:27:03;100950.91;;;-2.65;100.00
9289;BME280;4683;50.864;12.086;2023-02-10T01:29:31;100944.03;;;-2.66;100.00
9289;BME280;4683;50.864;12.086;2023-02-10T01:35:29;100947.31;;;-2.61;100.00
9289;BME280;4683;50.864;12.086;2023-02-10T01:37:57;100943.66;;;-2.54;100.00
9289;BME280;4683;50.864;12.086;2023-02-10T01:40:27;100937.59;;;-2.53;100.00
9289;BME280;4683;50.864;12.086;2023-02-10T01:42:55;100942.75;;;-2.53;100.00
9289;BME280;4683;50.864;12.086;2023-02-10T01:45:27;100953.88;;;-2.51;100.00
9289;BME280;4683;50.864;12.086;2023-02-10T01:47:58;100955.44;;;-2.47;100.00
9289;BME280;4683;50.864;12.086;2023-02-10T01:50:35;100955.31;;;-2.42;100.00
9289;BME280;4683;50.864;12.086;2023-02-10T01:53:06;100959.41;;;-2.37;100.00
9289;BME280;4683;50.864;12.086;2023-02-10T01:55:36;100962.75;;;-2.33;100.00
9289;BME280;4683;50.864;12.086;2023-02-10T01:58:10;100963.75;;;-2.37;100.00
9289;BME280;4683;50.864;12.086;2023-02-10T02:00:41;100967.16;;;-2.37;100.00
9289;BME280;4683;50.864;12.086;2023-02-10T02:03:10;100967.00;;;-2.32;100.00
9289;BME280;4683;50.864;12.086;2023-02-10T02:05:43;100965.84;;;-2.23;100.00
9289;BME280;4683;50.864;12.086;2023-02-10T02:08:14;100959.44;;;-2.12;100.00
9289;BME280;4683;50.864;12.086;2023-02-10T02:11:03;100966.94;;;-2.04;100.00
9289;BME280;4683;50.864;12.086;2023-02-10T02:13:55;100959.06;;;-2.01;100.00
9289;BME280;4683;50.864;12.086;2023-02-10T02:16:38;100961.47;;;-1.96;100.00
9289;BME280;4683;50.864;12.086;2023-02-10T02:19:34;100968.13;;;-1.89;100.00
9289;BME280;4683;50.864;12.086;2023-02-10T02:22:39;100960.13;;;-1.82;100.00
9289;BME280;4683;50.864;12.086;2023-02-10T02:25:33;100971.00;;;-1.73;100.00
9289;BME280;4683;50.864;12.086;2023-02-10T02:28:24;100966.50;;;-1.68;100.00
9289;BME280;4683;50.864;12.086;2023-02-10T02:34:35;100965.97;;;-1.53;100.00
9289;BME280;4683;50.864;12.086;2023-02-10T02:37:11;100957.63;;;-1.38;100.00
9289;BME280;4683;50.864;12.086;2023-02-10T02:39:42;100950.13;;;-1.22;100.00
9289;BME280;4683;50.864;12.086;2023-02-10T02:42:18;100951.34;;;-1.09;100.00
9289;BME280;4683;50.864;12.086;2023-02-10T02:44:51;100960.38;;;-0.97;100.00
9289;BME280;4683;50.864;12.086;2023-02-10T02:47:46;100965.16;;;-0.86;100.00
9289;BME280;4683;50.864;12.086;2023-02-10T02:50:25;100953.50;;;-0.76;100.00
9289;BME280;4683;50.864;12.086;2023-02-10T02:53:18;100966.94;;;-0.66;100.00
9289;BME280;4683;50.864;12.086;2023-02-10T02:56:00;100958.78;;;-0.57;100.00
9289;BME280;4683;50.864;12.086;2023-02-10T02:58:38;100953.09;;;-0.45;100.00
9289;BME280;4683;50.864;12.086;2023-02-10T03:01:13;100944.16;;;-0.38;100.00
9289;BME280;4683;50.864;12.086;2023-02-10T03:03:44;100942.91;;;-0.29;100.00
9289;BME280;4683;50.864;12.086;2023-02-10T03:06:12;100946.16;;;-0.24;100.00
9289;BME280;4683;50.864;12.086;2023-02-10T03:08:41;100946.59;;;-0.14;100.00
9289;BME280;4683;50.864;12.086;2023-02-10T03:11:10;100943.81;;;-0.10;100.00
9289;BME280;4683;50.864;12.086;2023-02-10T03:13:39;100939.34;;;-0.06;100.00
9289;BME280;4683;50.864;12.086;2023-02-10T03:16:07;100949.72;;;-0.06;100.00
9289;BME280;4683;50.864;12.086;2023-02-10T03:18:36;100952.19;;;-0.03;100.00
9289;BME280;4683;50.864;12.086;2023-02-10T03:21:06;100948.59;;;-0.01;100.00
9289;BME280;4683;50.864;12.086;2023-02-10T03:23:34;100953.75;;;0.01;100.00
9289;BME280;4683;50.864;12.086;2023-02-10T03:26:03;100946.69;;;0.05;100.00
9289;BME280;4683;50.864;12.086;2023-02-10T03:28:32;100949.31;;;0.03;100.00
9289;BME280;4683;50.864;12.086;2023-02-10T03:31:03;100948.56;;;0.01;100.00
9289;BME280;4683;50.864;12.086;2023-02-10T03:33:32;100948.75;;;-0.04;100.00
9289;BME280;4683;50.864;12.086;2023-02-10T03:36:01;100950.03;;;0.07;100.00
9289;BME280;4683;50.864;12.086;2023-02-10T03:38:31;100952.56;;;0.08;100.00
9289;BME280;4683;50.864;12.086;2023-02-10T03:41:00;100963.72;;;0.10;100.00
9289;BME280;4683;50.864;12.086;2023-02-10T03:43:28;100962.94;;;0.08;100.00
9289;BME280;4683;50.864;12.086;2023-02-10T03:46:00;100949.72;;;-0.06;100.00
9289;BME280;4683;50.864;12.086;2023-02-10T03:48:29;100950.59;;;-0.26;100.00
9289;BME280;4683;50.864;12.086;2023-02-10T03:50:59;100960.31;;;-0.31;100.00
9289;BME280;4683;50.864;12.086;2023-02-10T03:53:30;100961.91;;;-0.29;100.00
9289;BME280;4683;50.864;12.086;2023-02-10T03:55:59;100968.91;;;-0.10;100.00
9289;BME280;4683;50.864;12.086;2023-02-10T03:58:27;100977.81;;;0.05;100.00
9289;BME280;4683;50.864;12.086;2023-02-10T04:00:56;100979.72;;;-0.01;100.00
9289;BME280;4683;50.864;12.086;2023-02-10T04:03:25;100987.59;;;-0.02;100.00
9289;BME280;4683;50.864;12.086;2023-02-10T04:05:53;100972.94;;;-0.03;100.00
9289;BME280;4683;50.864;12.086;2023-02-10T04:08:22;100974.75;;;0.15;100.00
9289;BME280;4683;50.864;12.086;2023-02-10T04:10:51;100981.22;;;0.25;100.00
9289;BME280;4683;50.864;12.086;2023-02-10T04:13:20;100966.06;;;0.35;100.00
9289;BME280;4683;50.864;12.086;2023-02-10T04:15:48;100975.06;;;0.47;100.00
9289;BME280;4683;50.864;12.086;2023-02-10T04:18:16;100979.56;;;0.62;100.00
9289;BME280;4683;50.864;12.086;2023-02-10T04:20:45;100972.41;;;0.67;100.00
9289;BME280;4683;50.864;12.086;2023-02-10T04:23:13;100979.97;;;0.72;100.00
9289;BME280;4683;50.864;12.086;2023-02-10T04:25:42;100989.63;;;0.70;100.00
9289;BME280;4683;50.864;12.086;2023-02-10T04:28:11;100994.00;;;0.68;100.00
9289;BME280;4683;50.864;12.086;2023-02-10T04:30:40;100998.38;;;0.67;100.00
9289;BME280;4683;50.864;12.086;2023-02-10T04:33:10;101001.75;;;0.69;100.00
9289;BME280;4683;50.864;12.086;2023-02-10T04:35:38;100999.88;;;0.73;100.00
9289;BME280;4683;50.864;12.086;2023-02-10T04:38:06;101001.47;;;0.75;100.00
9289;BME280;4683;50.864;12.086;2023-02-10T04:40:35;101004.84;;;0.78;100.00
9289;BME280;4683;50.864;12.086;2023-02-10T04:43:03;100997.75;;;0.81;100.00
9289;BME280;4683;50.864;12.086;2023-02-10T04:45:33;101003.16;;;0.76;100.00
9289;BME280;4683;50.864;12.086;2023-02-10T04:48:02;101008.50;;;0.73;100.00
9289;BME280;4683;50.864;12.086;2023-02-10T04:50:31;101007.50;;;0.76;100.00
9289;BME280;4683;50.864;12.086;2023-02-10T04:52:59;101001.34;;;0.79;100.00
9289;BME280;4683;50.864;12.086;2023-02-10T04:55:28;100998.56;;;0.82;100.00
9289;BME280;4683;50.864;12.086;2023-02-10T04:57:56;101002.72;;;0.86;100.00
9289;BME280;4683;50.864;12.086;2023-02-10T05:00:25;100999.91;;;0.90;100.00
9289;BME280;4683;50.864;12.086;2023-02-10T05:02:56;100995.22;;;0.98;100.00
9289;BME280;4683;50.864;12.086;2023-02-10T05:05:25;100998.53;;;1.02;100.00
9289;BME280;4683;50.864;12.086;2023-02-10T05:07:54;100993.31;;;1.02;100.00
9289;BME280;4683;50.864;12.086;2023-02-10T05:10:23;101001.88;;;1.04;100.00
9289;BME280;4683;50.864;12.086;2023-02-10T05:12:52;101019.00;;;1.08;100.00
9289;BME280;4683;50.864;12.086;2023-02-10T05:15:20;101007.22;;;1.01;100.00
9289;BME280;4683;50.864;12.086;2023-02-10T05:17:49;101016.84;;;0.80;100.00
9289;BME280;4683;50.864;12.086;2023-02-10T05:20:19;101013.13;;;0.86;100.00
9289;BME280;4683;50.864;12.086;2023-02-10T05:22:47;101009.22;;;0.96;100.00
9289;BME280;4683;50.864;12.086;2023-02-10T05:25:16;101010.81;;;0.98;100.00
9289;BME280;4683;50.864;12.086;2023-02-10T05:27:45;101010.47;;;1.06;100.00
9289;BME280;4683;50.864;12.086;2023-02-10T05:30:14;101017.53;;;1.21;100.00
9289;BME280;4683;50.864;12.086;2023-02-10T05:32:43;101016.53;;;1.24;100.00
9289;BME280;4683;50.864;12.086;2023-02-10T05:35:12;101005.53;;;1.36;100.00
9289;BME280;4683;50.864;12.086;2023-02-10T05:37:42;101014.53;;;1.48;100.00
9289;BME280;4683;50.864;12.086;2023-02-10T05:40:11;101017.69;;;1.55;100.00
9289;BME280;4683;50.864;12.086;2023-02-10T05:42:39;101020.69;;;1.64;100.00
9289;BME280;4683;50.864;12.086;2023-02-10T05:45:08;101027.34;;;1.70;100.00
9289;BME280;4683;50.864;12.086;2023-02-10T05:47:37;101029.84;;;1.71;100.00
9289;BME280;4683;50.864;12.086;2023-02-10T05:50:06;101040.72;;;1.80;100.00
9289;BME280;4683;50.864;12.086;2023-02-10T05:52:35;101047.56;;;1.82;100.00
9289;BME280;4683;50.864;12.086;2023-02-10T05:55:06;101046.41;;;1.88;100.00
9289;BME280;4683;50.864;12.086;2023-02-10T05:57:35;101054.97;;;1.90;100.00
9289;BME280;4683;50.864;12.086;2023-02-10T06:00:04;101053.13;;;1.92;100.00
9289;BME280;4683;50.864;12.086;2023-02-10T06:02:34;101051.00;;;1.83;100.00
9289;BME280;4683;50.864;12.086;2023-02-10T06:05:03;101053.13;;;1.92;100.00
9289;BME280;4683;50.864;12.086;2023-02-10T06:07:32;101061.41;;;2.00;100.00
9289;BME280;4683;50.864;12.086;2023-02-10T06:10:01;101056.22;;;2.00;100.00
9289;BME280;4683;50.864;12.086;2023-02-10T06:12:31;101055.28;;;2.01;100.00
9289;BME280;4683;50.864;12.086;2023-02-10T06:15:00;101058.72;;;2.01;100.00
9289;BME280;4683;50.864;12.086;2023-02-10T06:17:31;101056.34;;;1.97;100.00
9289;BME280;4683;50.864;12.086;2023-02-10T06:20:00;101056.66;;;1.91;100.00
9289;BME280;4683;50.864;12.086;2023-02-10T06:23:03;101053.84;;;1.95;100.00
9289;BME280;4683;50.864;12.086;2023-02-10T06:25:32;101053.75;;;1.97;100.00
9289;BME280;4683;50.864;12.086;2023-02-10T06:28:04;101054.22;;;2.05;100.00
9289;BME280;4683;50.864;12.086;2023-02-10T06:30:32;101062.78;;;2.07;100.00
9289;BME280;4683;50.864;12.086;2023-02-10T06:33:01;101061.56;;;1.97;100.00
9289;BME280;4683;50.864;12.086;2023-02-10T06:35:30;101070.56;;;1.90;100.00
9289;BME280;4683;50.864;12.086;2023-02-10T06:38:02;101075.94;;;1.87;100.00
9289;BME280;4683;50.864;12.086;2023-02-10T06:40:31;101065.38;;;1.90;100.00
9289;BME280;4683;50.864;12.086;2023-02-10T06:43:02;101073.72;;;1.96;100.00
9289;BME280;4683;50.864;12.086;2023-02-10T06:45:31;101067.81;;;1.93;100.00
9289;BME280;4683;50.864;12.086;2023-02-10T06:48:02;101074.66;;;1.95;100.00
9289;BME280;4683;50.864;12.086;2023-02-10T06:50:33;101068.44;;;1.98;100.00
9289;BME280;4683;50.864;12.086;2023-02-10T06:53:01;101067.06;;;2.08;100.00
9289;BME280;4683;50.864;12.086;2023-02-10T06:55:30;101073.41;;;2.20;100.00
9289;BME280;4683;50.864;12.086;2023-02-10T06:57:59;101076.53;;;2.26;100.00
9289;BME280;4683;50.864;12.086;2023-02-10T07:00:30;101079.84;;;2.30;100.00
9289;BME280;4683;50.864;12.086;2023-02-10T07:03:01;101085.88;;;2.31;100.00
9289;BME280;4683;50.864;12.086;2023-02-10T07:05:31;101083.75;;;2.39;100.00
9289;BME280;4683;50.864;12.086;2023-02-10T07:08:03;101082.34;;;2.49;100.00
9289;BME280;4683;50.864;12.086;2023-02-10T07:10:32;101086.34;;;2.56;100.00
9289;BME280;4683;50.864;12.086;2023-02-10T07:13:00;101080.78;;;2.62;100.00
9289;BME280;4683;50.864;12.086;2023-02-10T07:15:30;101088.47;;;2.65;100.00
9289;BME280;4683;50.864;12.086;2023-02-10T07:17:59;101086.31;;;2.73;100.00
9289;BME280;4683;50.864;12.086;2023-02-10T07:20:27;101079.00;;;2.80;100.00
9289;BME280;4683;50.864;12.086;2023-02-10T07:22:56;101085.34;;;2.92;100.00
9289;BME280;4683;50.864;12.086;2023-02-10T07:25:25;101104.06;;;2.98;100.00
9289;BME280;4683;50.864;12.086;2023-02-10T07:27:54;101104.03;;;3.00;100.00
9289;BME280;4683;50.864;12.086;2023-02-10T07:30:22;101113.53;;;3.01;100.00
9289;BME280;4683;50.864;12.086;2023-02-10T07:32:52;101118.25;;;3.10;100.00
9289;BME280;4683;50.864;12.086;2023-02-10T07:35:21;101120.25;;;3.21;100.00
9289;BME280;4683;50.864;12.086;2023-02-10T07:37:50;101124.00;;;3.33;100.00
9289;BME280;4683;50.864;12.086;2023-02-10T07:40:19;101125.06;;;3.28;100.00
9289;BME280;4683;50.864;12.086;2023-02-10T07:42:49;101133.41;;;3.35;100.00
9289;BME280;4683;50.864;12.086;2023-02-10T07:45:17;101129.22;;;2.99;100.00
9289;BME280;4683;50.864;12.086;2023-02-10T07:47:46;101135.00;;;2.89;100.00
9289;BME280;4683;50.864;12.086;2023-02-10T07:50:16;101128.63;;;2.94;100.00
9289;BME280;4683;50.864;12.086;2023-02-10T07:52:44;101128.81;;;3.07;100.00
9289;BME280;4683;50.864;12.086;2023-02-10T07:55:13;101128.97;;;3.04;100.00
9289;BME280;4683;50.864;12.086;2023-02-10T07:57:42;101131.88;;;3.15;100.00
9289;BME280;4683;50.864;12.086;2023-02-10T08:00:12;101140.63;;;3.14;100.00
9289;BME280;4683;50.864;12.086;2023-02-10T08:02:41;101139.28;;;3.23;100.00
9289;BME280;4683;50.864;12.086;2023-02-10T08:05:10;101143.69;;;3.38;100.00
9289;BME280;4683;50.864;12.086;2023-02-10T08:07:40;101134.59;;;3.45;100.00
9289;BME280;4683;50.864;12.086;2023-02-10T08:10:12;101142.66;;;3.56;100.00
9289;BME280;4683;50.864;12.086;2023-02-10T08:12:41;101153.59;;;3.63;100.00
9289;BME280;4683;50.864;12.086;2023-02-10T08:15:10;101162.56;;;3.59;100.00
9289;BME280;4683;50.864;12.086;2023-02-10T08:17:40;101159.69;;;3.64;100.00
9289;BME280;4683;50.864;12.086;2023-02-10T08:20:10;101156.97;;;3.81;100.00
9289;BME280;4683;50.864;12.086;2023-02-10T08:22:40;101153.69;;;3.93;100.00
9289;BME280;4683;50.864;12.086;2023-02-10T08:25:08;101151.16;;;3.92;100.00
9289;BME280;4683;50.864;12.086;2023-02-10T08:27:37;101153.53;;;3.96;100.00
9289;BME280;4683;50.864;12.086;2023-02-10T08:30:07;101161.25;;;3.98;100.00
9289;BME280;4683;50.864;12.086;2023-02-10T08:32:36;101152.09;;;3.75;100.00
9289;BME280;4683;50.864;12.086;2023-02-10T08:35:07;101146.88;;;3.91;100.00
9289;BME280;4683;50.864;12.086;2023-02-10T08:37:36;101157.66;;;4.00;100.00
9289;BME280;4683;50.864;12.086;2023-02-10T08:40:06;101159.00;;;3.92;100.00
9289;BME280;4683;50.864;12.086;2023-02-10T08:42:35;101156.81;;;3.52;100.00
9289;BME280;4683;50.864;12.086;2023-02-10T08:45:05;101156.63;;;3.40;100.00
9289;BME280;4683;50.864;12.086;2023-02-10T08:47:34;101154.78;;;3.42;100.00
9289;BME280;4683;50.864;12.086;2023-02-10T08:50:05;101160.50;;;3.33;100.00
9289;BME280;4683;50.864;12.086;2023-02-10T08:52:34;101154.34;;;3.49;100.00
9289;BME280;4683;50.864;12.086;2023-02-10T08:55:06;101147.91;;;3.41;100.00
9289;BME280;4683;50.864;12.086;2023-02-10T08:57:35;101152.69;;;3.33;100.00
9289;BME280;4683;50.864;12.086;2023-02-10T09:00:06;101152.25;;;3.24;100.00
9289;BME280;4683;50.864;12.086;2023-02-10T09:02:36;101162.13;;;3.18;100.00
9289;BME280;4683;50.864;12.086;2023-02-10T09:05:05;101144.31;;;3.26;100.00
9289;BME280;4683;50.864;12.086;2023-02-10T09:07:36;101144.06;;;3.30;100.00
9289;BME280;4683;50.864;12.086;2023-02-10T09:10:08;101150.75;;;3.52;100.00
9289;BME280;4683;50.864;12.086;2023-02-10T09:12:38;101143.13;;;3.95;100.00
9289;BME280;4683;50.864;12.086;2023-02-10T09:15:10;101147.44;;;4.42;100.00
9289;BME280;4683;50.864;12.086;2023-02-10T09:17:40;101147.47;;;4.26;100.00
9289;BME280;4683;50.864;12.086;2023-02-10T09:20:11;101156.75;;;4.16;100.00
9289;BME280;4683;50.864;12.086;2023-02-10T09:22:42;101156.44;;;4.06;100.00
9289;BME280;4683;50.864;12.086;2023-02-10T09:25:12;101160.22;;;4.16;100.00
9289;BME280;4683;50.864;12.086;2023-02-10T09:27:41;101159.94;;;4.37;100.00
9289;BME280;4683;50.864;12.086;2023-02-10T09:30:11;101159.13;;;4.20;100.00
9289;BME280;4683;50.864;12.086;2023-02-10T09:32:40;101162.97;;;4.59;100.00
9289;BME280;4683;50.864;12.086;2023-02-10T09:35:08;101159.38;;;4.46;100.00
9289;BME280;4683;50.864;12.086;2023-02-10T09:37:37;101162.06;;;4.44;100.00
9289;BME280;4683;50.864;12.086;2023-02-10T09:40:09;101162.22;;;4.57;100.00
9289;BME280;4683;50.864;12.086;2023-02-10T09:42:58;101158.47;;;4.61;100.00
9289;BME280;4683;50.864;12.086;2023-02-10T09:45:34;101161.84;;;4.63;100.00
9289;BME280;4683;50.864;12.086;2023-02-10T09:48:21;101163.84;;;4.74;100.00
9289;BME280;4683;50.864;12.086;2023-02-10T09:51:02;101172.50;;;4.74;100.00
9289;BME280;4683;50.864;12.086;2023-02-10T09:53:35;101164.09;;;4.55;100.00
9289;BME280;4683;50.864;12.086;2023-02-10T09:56:11;101170.56;;;4.78;100.00
9289;BME280;4683;50.864;12.086;2023-02-10T09:58:46;101165.78;;;4.84;100.00
9289;BME280;4683;50.864;12.086;2023-02-10T10:01:21;101164.13;;;5.12;100.00
9289;BME280;4683;50.864;12.086;2023-02-10T10:03:56;101171.53;;;5.20;100.00
9289;BME280;4683;50.864;12.086;2023-02-10T10:06:31;101171.81;;;5.01;100.00
9289;BME280;4683;50.864;12.086;2023-02-10T10:09:12;101174.81;;;5.09;100.00
9289;BME280;4683;50.864;12.086;2023-02-10T10:11:47;101175.66;;;5.09;100.00
9289;BME280;4683;50.864;12.086;2023-02-10T10:14:20;101177.50;;;5.07;100.00
9289;BME280;4683;50.864;12.086;2023-02-10T10:17:25;101169.53;;;4.95;100.00
9289;BME280;4683;50.864;12.086;2023-02-10T10:20:21;101175.91;;;4.91;100.00
9289;BME280;4683;50.864;12.086;2023-02-10T10:22:59;101177.47;;;4.79;100.00
9289;BME280;4683;50.864;12.086;2023-02-10T10:25:50;101168.34;;;4.86;100.00
9289;BME280;4683;50.864;12.086;2023-02-10T10:28:42;101174.34;;;4.72;100.00
9289;BME280;4683;50.864;12.086;2023-02-10T10:31:21;101180.19;;;4.77;100.00
9289;BME280;4683;50.864;12.086;2023-02-10T10:33:54;101179.81;;;4.83;100.00
9289;BME280;4683;50.864;12.086;2023-02-10T10:36:33;101179.56;;;4.58;100.00
9289;BME280;4683;50.864;12.086;2023-02-10T10:39:11;101174.47;;;4.71;100.00
9289;BME280;4683;50.864;12.086;2023-02-10T10:41:42;101167.72;;;4.67;100.00
9289;BME280;4683;50.864;12.086;2023-02-10T10:44:17;101170.44;;;4.65;100.00
9289;BME280;4683;50.864;12.086;2023-02-10T10:47:02;101173.78;;;4.67;100.00
9289;BME280;4683;50.864;12.086;2023-02-10T10:49:36;101168.34;;;4.86;100.00
9289;BME280;4683;50.864;12.086;2023-02-10T10:52:27;101165.69;;;4.72;100.00
9289;BME280;4683;50.864;12.086;2023-02-10T10:54:58;101170.38;;;4.81;100.00
9289;BME280;4683;50.864;12.086;2023-02-10T10:57:29;101164.50;;;4.77;100.00
9289;BME280;4683;50.864;12.086;2023-02-10T11:00:05;101159.47;;;4.89;100.00
9289;BME280;4683;50.864;12.086;2023-02-10T11:02:39;101156.84;;;4.89;100.00
9289;BME280;4683;50.864;12.086;2023-02-10T11:05:19;101161.25;;;5.02;100.00
9289;BME280;4683;50.864;12.086;2023-02-10T11:07:50;101162.06;;;5.17;100.00
9289;BME280;4683;50.864;12.086;2023-02-10T11:10:26;101162.25;;;4.86;100.00
9289;BME280;4683;50.864;12.086;2023-02-10T11:12:58;101161.69;;;4.95;100.00
9289;BME280;4683;50.864;12.086;2023-02-10T11:15:38;101172.44;;;4.90;100.00
9289;BME280;4683;50.864;12.086;2023-02-10T11:18:18;101163.69;;;4.91;100.00
9289;BME280;4683;50.864;12.086;2023-02-10T11:20:58;101161.13;;;4.90;100.00
9289;BME280;4683;50.864;12.086;2023-02-10T11:23:29;101158.72;;;5.15;100.00
9289;BME280;4683;50.864;12.086;2023-02-10T11:26:03;101153.72;;;5.53;100.00
9289;BME280;4683;50.864;12.086;2023-02-10T11:28:35;101152.47;;;5.73;100.00
9289;BME280;4683;50.864;12.086;2023-02-10T11:31:13;101153.16;;;5.63;100.00
9289;BME280;4683;50.864;12.086;2023-02-10T11:33:57;101147.28;;;5.59;100.00
9289;BME280;4683;50.864;12.086;2023-02-10T11:36:35;101150.34;;;5.66;100.00
9289;BME280;4683;50.864;12.086;2023-02-10T11:39:06;101150.47;;;5.35;100.00
9289;BME280;4683;50.864;12.086;2023-02-10T11:41:43;101150.38;;;5.51;100.00
9289;BME280;4683;50.864;12.086;2023-02-10T11:44:27;101148.81;;;5.34;100.00
9289;BME280;4683;50.864;12.086;2023-02-10T11:47:00;101151.41;;;5.49;100.00
9289;BME280;4683;50.864;12.086;2023-02-10T11:49:31;101156.44;;;5.52;100.00
9289;BME280;4683;50.864;12.086;2023-02-10T11:52:06;101145.44;;;5.47;100.00
9289;BME280;4683;50.864;12.086;2023-02-10T11:54:38;101134.59;;;5.80;100.00
9289;BME280;4683;50.864;12.086;2023-02-10T11:57:22;101136.28;;;6.08;100.00
9289;BME280;4683;50.864;12.086;2023-02-10T12:00:19;101143.06;;;5.98;100.00
9289;BME280;4683;50.864;12.086;2023-02-10T12:03:24;101133.34;;;5.85;100.00
9289;BME280;4683;50.864;12.086;2023-02-10T12:06:05;101131.41;;;6.16;100.00
9289;BME280;4683;50.864;12.086;2023-02-10T12:08:46;101127.09;;;5.88;100.00
9289;BME280;4683;50.864;12.086;2023-02-10T12:11:26;101129.81;;;5.87;100.00
9289;BME280;4683;50.864;12.086;2023-02-10T12:14:06;101122.59;;;6.17;100.00
9289;BME280;4683;50.864;12.086;2023-02-10T12:16:51;101122.84;;;6.40;100.00
9289;BME280;4683;50.864;12.086;2023-02-10T12:19:35;101129.91;;;6.52;100.00
9289;BME280;4683;50.864;12.086;2023-02-10T12:22:15;101136.50;;;6.70;100.00
9289;BME280;4683;50.864;12.086;2023-02-10T12:25:14;101132.53;;;6.77;100.00
9289;BME280;4683;50.864;12.086;2023-02-10T12:27:57;101115.97;;;6.77;100.00
9289;BME280;4683;50.864;12.086;2023-02-10T12:30:38;101116.81;;;6.77;100.00
9289;BME280;4683;50.864;12.086;2023-02-10T12:33:35;101103.63;;;6.26;100.00
9289;BME280;4683;50.864;12.086;2023-02-10T12:36:15;101110.44;;;6.16;100.00
9289;BME280;4683;50.864;12.086;2023-02-10T12:39:03;101108.56;;;6.18;100.00
9289;BME280;4683;50.864;12.086;2023-02-10T12:41:57;101100.16;;;6.13;100.00
9289;BME280;4683;50.864;12.086;2023-02-10T12:44:48;101104.13;;;6.06;100.00
9289;BME280;4683;50.864;12.086;2023-02-10T12:47:37;101096.59;;;6.14;100.00
9289;BME280;4683;50.864;12.086;2023-02-10T12:50:36;101091.16;;;6.17;100.00
9289;BME280;4683;50.864;12.086;2023-02-10T12:53:13;101092.22;;;6.27;100.00
9289;BME280;4683;50.864;12.086;2023-02-10T12:55:53;101086.47;;;6.22;100.00
9289;BME280;4683;50.864;12.086;2023-02-10T12:58:29;101078.19;;;6.41;100.00
9289;BME280;4683;50.864;12.086;2023-02-10T13:01:10;101080.81;;;6.41;100.00
9289;BME280;4683;50.864;12.086;2023-02-10T13:03:45;101071.50;;;6.50;100.00
9289;BME280;4683;50.864;12.086;2023-02-10T13:06:30;101072.31;;;6.38;100.00
9289;BME280;4683;50.864;12.086;2023-02-10T13:09:09;101070.88;;;6.59;100.00
9289;BME280;4683;50.864;12.086;2023-02-10T13:11:45;101075.88;;;6.62;100.00
9289;BME280;4683;50.864;12.086;2023-02-10T13:14:26;101070.44;;;6.65;100.00
9289;BME280;4683;50.864;12.086;2023-02-10T13:17:00;101064.44;;;6.63;100.00
9289;BME280;4683;50.864;12.086;2023-02-10T13:19:39;101058.47;;;6.61;100.00
9289;BME280;4683;50.864;12.086;2023-02-10T13:22:22;101060.47;;;6.70;100.00
9289;BME280;4683;50.864;12.086;2023-02-10T13:25:01;101061.81;;;6.63;100.00
9289;BME280;4683;50.864;12.086;2023-02-10T13:27:53;101063.72;;;6.61;100.00
9289;BME280;4683;50.864;12.086;2023-02-10T13:30:53;101064.16;;;6.68;100.00
9289;BME280;4683;50.864;12.086;2023-02-10T13:33:39;101064.25;;;6.66;100.00
9289;BME280;4683;50.864;12.086;2023-02-10T13:36:17;101054.28;;;6.71;100.00
9289;BME280;4683;50.864;12.086;2023-02-10T13:39:00;101050.09;;;6.69;100.00